Terminal Aerodrome Forecast
Issued by NWS New Orleans/Baton Rouge, LA

Current Version | Previous Version | Text Only | Print | Product List | Glossary On
Versions: 1 2 3 4 5 6 7 8 9 10 11 12 13 14 15 16 17 18 19
000
FTUS44 KLIX 301124
TAFBTR
TAF
KBTR 301124Z 3012/0112 27006KT P6SM VCSH FEW025 SCT040 SCT250
     FM301430 25010G18KT P6SM SCT030 SCT150
     FM301700 26011KT P6SM VCTS SCT040CB SCT120 SCT250
     FM010100 23008KT P6SM SCT040 BKN200
     FM010800 VRB03KT P6SM SCT005 BKN150=

USA.gov is the U.S. government's official web portal to all federal, state and local government web resources and services.